createdAt,value
2023-09-16T00:00:00.425Z,14.15
2023-09-16T00:05:10.745Z,17.06
2023-09-16T00:10:19.520Z,15.61
2023-09-16T00:15:29.164Z,14.00
2023-09-16T00:20:40.095Z,13.11
2023-09-16T00:25:48.880Z,15.56
2023-09-16T00:30:57.062Z,16.76
2023-09-16T00:36:05.727Z,14.64
2023-09-16T00:41:14.418Z,13.26
2023-09-16T00:46:22.498Z,14.06
2023-09-16T00:51:31.538Z,16.79
2023-09-16T00:56:39.973Z,15.30
2023-09-16T01:01:51.431Z,13.56
2023-09-16T01:07:00.466Z,12.78
2023-09-16T01:12:10.222Z,15.73
2023-09-16T01:17:33.784Z,16.05
2023-09-16T01:22:46.342Z,13.94
2023-09-16T01:27:54.899Z,12.69
2023-09-16T01:33:11.226Z,13.63
2023-09-16T01:38:24.299Z,16.41
2023-09-16T01:43:33.648Z,14.74
2023-09-16T01:48:47.255Z,13.13
2023-09-16T01:53:56.234Z,13.92
2023-09-16T01:59:05.059Z,16.19
2023-09-16T02:04:13.158Z,14.33
2023-09-16T02:09:21.160Z,12.86
2023-09-16T02:14:29.255Z,13.54
2023-09-16T02:19:38.106Z,15.91
2023-09-16T02:24:46.541Z,14.04
2023-09-16T02:29:55.237Z,12.58
2023-09-16T02:35:03.492Z,11.80
2023-09-16T02:40:12.873Z,14.57
2023-09-16T02:45:21.482Z,15.42
2023-09-16T02:50:29.572Z,13.36
2023-09-16T02:55:37.673Z,12.10
2023-09-16T03:00:48.058Z,13.01
2023-09-16T03:05:56.368Z,15.63
2023-09-16T03:11:07.613Z,13.83
2023-09-16T03:16:20.981Z,12.25
2023-09-16T03:21:29.581Z,12.96
2023-09-16T03:26:37.705Z,15.39
2023-09-16T03:31:46.086Z,13.54
2023-09-16T03:36:54.815Z,12.04
2023-09-16T03:42:02.983Z,12.83
2023-09-16T03:47:11.947Z,15.20
2023-09-16T03:52:20.168Z,13.28
2023-09-16T03:57:28.280Z,11.82
2023-09-16T04:02:36.477Z,12.56
2023-09-16T04:07:45.026Z,15.09
2023-09-16T04:12:53.547Z,13.28
2023-09-16T04:18:01.685Z,11.78
2023-09-16T04:23:11.222Z,12.50
2023-09-16T04:28:19.905Z,15.02
2023-09-16T04:33:28.357Z,13.18
2023-09-16T04:38:36.407Z,11.64
2023-09-16T04:43:45.090Z,12.46
2023-09-16T04:48:53.458Z,15.15
2023-09-16T04:54:02.717Z,13.37
2023-09-16T04:59:10.794Z,11.86
2023-09-16T05:04:18.880Z,12.66
2023-09-16T05:09:27.083Z,15.42
2023-09-16T05:14:35.423Z,13.80
2023-09-16T05:19:43.603Z,12.40
2023-09-16T05:24:54.298Z,13.40
2023-09-16T05:30:03.908Z,16.63
2023-09-16T05:35:12.492Z,15.91
2023-09-16T05:40:20.779Z,14.19
2023-09-16T05:45:29.276Z,15.28
2023-09-16T05:50:37.741Z,17.87
2023-09-16T05:55:45.787Z,16.41
2023-09-16T06:01:00.405Z,15.93
2023-09-16T06:06:11.060Z,18.72
2023-09-16T06:11:19.518Z,17.47
2023-09-16T06:16:27.861Z,16.12
2023-09-16T06:21:36.160Z,17.02
2023-09-16T06:26:44.300Z,19.51
2023-09-16T06:31:52.436Z,18.09
2023-09-16T06:37:01.237Z,17.57
2023-09-16T06:42:09.588Z,19.31
2023-09-16T06:47:17.789Z,18.12
2023-09-16T06:52:27.934Z,17.30
2023-09-16T06:57:36.092Z,19.49
2023-09-16T07:02:44.264Z,19.33
2023-09-16T07:07:54.091Z,18.27
2023-09-16T07:13:02.151Z,20.14
2023-09-16T07:18:10.571Z,19.92
2023-09-16T07:23:18.714Z,18.97
2023-09-16T07:28:28.215Z,18.81
2023-09-16T07:33:36.364Z,21.35
2023-09-16T07:38:45.508Z,20.88
2023-09-16T07:43:53.644Z,20.17
2023-09-16T07:49:02.098Z,20.00
2023-09-16T07:54:10.816Z,20.02
2023-09-16T07:59:21.623Z,20.10
2023-09-16T08:04:29.920Z,20.14
2023-09-16T08:09:38.206Z,20.36
2023-09-16T08:14:46.263Z,20.38
2023-09-16T08:19:54.665Z,20.30
2023-09-16T08:25:05.191Z,20.37
2023-09-16T08:30:15.112Z,20.41
2023-09-16T08:35:26.437Z,20.43
2023-09-16T08:40:34.705Z,20.61
2023-09-16T08:45:50.737Z,20.75
2023-09-16T08:51:00.029Z,20.79
2023-09-16T08:56:10.142Z,20.70
2023-09-16T09:01:20.434Z,20.65
2023-09-16T09:06:40.109Z,20.72
2023-09-16T09:11:49.974Z,20.82
2023-09-16T09:17:01.854Z,20.96
2023-09-16T09:22:10.978Z,21.04
2023-09-16T09:27:19.119Z,21.15
2023-09-16T09:32:32.629Z,21.43
2023-09-16T09:37:41.275Z,21.74
2023-09-16T09:42:51.822Z,21.97
2023-09-16T09:48:00.670Z,22.34
2023-09-16T09:53:08.998Z,22.73
2023-09-16T09:58:17.124Z,22.96
2023-09-16T10:03:25.926Z,23.34
2023-09-16T10:08:35.072Z,23.67
2023-09-16T10:13:43.548Z,23.85
2023-09-16T10:18:52.103Z,24.03
2023-09-16T10:24:00.561Z,24.42
2023-09-16T10:29:10.911Z,24.69
2023-09-16T10:34:19.179Z,24.68
2023-09-16T10:39:30.744Z,24.55
2023-09-16T10:44:40.130Z,24.55
2023-09-16T10:49:48.961Z,24.75
2023-09-16T10:55:06.165Z,24.82
2023-09-16T11:00:16.333Z,24.87
2023-09-16T11:05:24.508Z,25.16
2023-09-16T11:10:33.282Z,25.53
2023-09-16T11:15:44.670Z,25.66
2023-09-16T11:20:53.296Z,25.85
2023-09-16T11:26:04.578Z,25.90
2023-09-16T11:31:12.803Z,25.85
2023-09-16T11:36:21.723Z,25.92
2023-09-16T11:41:29.816Z,25.99
2023-09-16T11:46:38.889Z,26.08
2023-09-16T11:51:52.466Z,26.16
2023-09-16T11:57:01.920Z,26.07
2023-09-16T12:02:10.998Z,26.13
2023-09-16T12:07:26.412Z,26.37
2023-09-16T12:12:36.112Z,26.39
2023-09-16T12:17:44.413Z,26.38
2023-09-16T12:22:54.135Z,26.54
2023-09-16T12:28:02.443Z,26.62
2023-09-16T12:33:10.507Z,26.46
2023-09-16T12:38:19.586Z,26.56
2023-09-16T12:43:28.326Z,26.74
2023-09-16T12:48:39.504Z,26.60
2023-09-16T12:53:48.617Z,26.51
2023-09-16T12:58:56.801Z,26.56
2023-09-16T13:04:07.358Z,26.67
2023-09-16T13:09:15.544Z,26.55
2023-09-16T13:14:24.140Z,26.49
2023-09-16T13:19:32.338Z,26.45
2023-09-16T13:24:46.501Z,26.43
2023-09-16T13:30:03.537Z,26.49
2023-09-16T13:35:14.185Z,26.37
2023-09-16T13:40:23.629Z,26.32
2023-09-16T13:45:32.077Z,26.28
2023-09-16T13:50:42.862Z,26.22
2023-09-16T13:55:54.392Z,26.10
2023-09-16T14:01:02.622Z,26.03
2023-09-16T14:06:10.990Z,25.92
2023-09-16T14:11:20.897Z,25.89
2023-09-16T14:16:30.800Z,25.87
2023-09-16T14:21:39.399Z,25.91
2023-09-16T14:26:47.546Z,25.89
2023-09-16T14:31:55.798Z,25.93
2023-09-16T14:37:04.110Z,25.90
2023-09-16T14:42:12.235Z,25.92
2023-09-16T14:47:20.312Z,25.92
2023-09-16T14:52:28.480Z,25.82
2023-09-16T14:57:36.623Z,25.69
2023-09-16T15:02:46.601Z,25.53
2023-09-16T15:07:54.895Z,25.37
2023-09-16T15:13:03.007Z,25.15
2023-09-16T15:18:11.513Z,24.95
2023-09-16T15:23:20.319Z,24.75
2023-09-16T15:28:28.578Z,24.55
2023-09-16T15:33:37.244Z,24.38
2023-09-16T15:38:45.460Z,24.20
2023-09-16T15:43:53.556Z,24.06
2023-09-16T15:49:01.827Z,23.96
2023-09-16T15:54:10.264Z,23.85
2023-09-16T15:59:18.301Z,23.73
2023-09-16T16:04:26.686Z,23.60
2023-09-16T16:09:34.898Z,23.50
2023-09-16T16:14:42.969Z,23.38
2023-09-16T16:19:51.760Z,23.27
2023-09-16T16:25:00.593Z,23.17
2023-09-16T16:30:12.274Z,23.02
2023-09-16T16:35:20.955Z,22.86
2023-09-16T16:40:29.149Z,22.70
2023-09-16T16:45:37.248Z,22.52
2023-09-16T16:50:45.859Z,22.34
2023-09-16T16:55:53.968Z,22.12
2023-09-16T17:01:02.304Z,21.93
2023-09-16T17:06:10.521Z,21.72
2023-09-16T17:11:18.702Z,21.43
2023-09-16T17:16:27.387Z,21.09
2023-09-16T17:21:35.555Z,20.76
2023-09-16T17:26:43.683Z,20.48
2023-09-16T17:31:52.084Z,20.22
2023-09-16T17:37:01.407Z,19.97
2023-09-16T17:42:09.977Z,19.72
2023-09-16T17:47:18.053Z,19.51
2023-09-16T17:52:26.333Z,19.29
2023-09-16T17:57:35.455Z,19.08
2023-09-16T18:02:44.350Z,18.93
2023-09-16T18:07:52.565Z,18.85
2023-09-16T18:13:00.658Z,21.21
2023-09-16T18:18:10.146Z,22.71
2023-09-16T18:23:18.852Z,21.26
2023-09-16T18:28:27.436Z,20.28
2023-09-16T18:33:35.897Z,19.62
2023-09-16T18:38:44.396Z,20.27
2023-09-16T18:43:53.556Z,22.95
2023-09-16T18:49:01.806Z,22.08
2023-09-16T18:54:11.101Z,20.53
2023-09-16T18:59:19.311Z,19.54
2023-09-16T19:04:27.540Z,18.82
2023-09-16T19:09:36.924Z,20.62
2023-09-16T19:14:45.036Z,21.88
2023-09-16T19:19:53.570Z,20.17
2023-09-16T19:25:02.105Z,18.99
2023-09-16T19:30:13.352Z,18.22
2023-09-16T19:35:22.495Z,19.85
2023-09-16T19:40:30.554Z,22.02
2023-09-16T19:45:39.427Z,20.59
2023-09-16T19:50:50.999Z,19.12
2023-09-16T19:55:59.097Z,19.01
2023-09-16T20:01:07.279Z,21.69
2023-09-16T20:06:16.924Z,21.03
2023-09-16T20:11:25.124Z,19.32
2023-09-16T20:16:33.690Z,18.23
2023-09-16T20:21:41.910Z,19.57
2023-09-16T20:26:50.357Z,21.53
2023-09-16T20:31:58.503Z,19.94
2023-09-16T20:37:07.546Z,18.53
2023-09-16T20:42:15.910Z,17.85
2023-09-16T20:47:24.251Z,20.38
2023-09-16T20:52:33.801Z,21.15
2023-09-16T20:57:42.022Z,19.29
2023-09-16T21:02:51.034Z,18.06
2023-09-16T21:07:59.296Z,18.84
2023-09-16T21:13:07.780Z,21.36
2023-09-16T21:18:15.916Z,20.31
2023-09-16T21:23:25.486Z,18.64
2023-09-16T21:28:34.659Z,17.76
2023-09-16T21:33:43.815Z,20.04
2023-09-16T21:38:51.884Z,20.91
2023-09-16T21:44:00.584Z,19.01
2023-09-16T21:49:08.752Z,17.76
2023-09-16T21:54:16.900Z,18.58
2023-09-16T21:59:25.199Z,21.15
2023-09-16T22:04:33.638Z,20.12
2023-09-16T22:09:41.827Z,18.41
2023-09-16T22:14:49.898Z,17.42
2023-09-16T22:19:58.174Z,19.44
2023-09-16T22:25:08.480Z,21.03
2023-09-16T22:30:20.713Z,19.19
2023-09-16T22:35:29.038Z,17.72
2023-09-16T22:40:37.202Z,18.51
2023-09-16T22:45:46.586Z,20.76
2023-09-16T22:50:54.808Z,19.19
2023-09-16T22:56:03.040Z,17.66
2023-09-16T23:01:11.332Z,18.33
2023-09-16T23:06:19.459Z,20.62
2023-09-16T23:11:27.463Z,19.08
2023-09-16T23:16:35.673Z,17.53
2023-09-16T23:21:43.870Z,18.19
2023-09-16T23:26:51.950Z,20.53
2023-09-16T23:32:00.134Z,19.05
2023-09-16T23:37:08.473Z,17.50
2023-09-16T23:42:16.574Z,18.06
2023-09-16T23:47:25.380Z,20.46
2023-09-16T23:52:34.405Z,19.04
2023-09-16T23:57:42.501Z,17.40
